Time;durP1;ratioP1;P1;durP2;ratioP2;P2;SDS_P1;SDS_P2;PMS_P1;PMS_P2;Temp;Humidity;BMP_temperature;BMP_pressure;BME280_temperature;BME280_humidity;BME280_pressure;Samples;Min_cycle;Max_cycle;Signal;HPM_P1;HPM_P2
2023/09/22 00:02:24;;;;;;;;;;;12.90;99.90;;;;;;5078544;28;19933;-65
2023/09/22 00:04:50;;;;;;;;;;;12.90;99.90;;;;;;5080260;28;20191;-65
2023/09/22 00:07:15;;;;;;;;;;;13.10;99.90;;;;;;5062100;28;19927;-65
2023/09/22 00:09:41;;;;;;;;;;;13.20;99.90;;;;;;5081524;28;20289;-65
2023/09/22 00:12:08;;;;;;;;;;;13.00;99.90;;;;;;5065114;28;20001;-64
2023/09/22 00:14:35;;;;;;;;;;;13.20;99.90;;;;;;5083422;28;19943;-64
2023/09/22 00:17:01;;;;;;;;;;;13.00;99.90;;;;;;5081680;28;19997;-64
2023/09/22 00:19:27;;;;;;;;;;;12.90;99.90;;;;;;5082228;28;20024;-64
2023/09/22 00:21:55;;;;;;;;;;;13.40;99.90;;;;;;5062428;28;20281;-65
2023/09/22 00:24:21;;;;;;;;;;;13.40;99.90;;;;;;5078042;28;19924;-65
2023/09/22 00:26:47;;;;;;;;;;;13.30;99.90;;;;;;5045469;28;19920;-65
2023/09/22 00:29:12;;;;;;;;;;;13.00;99.90;;;;;;5078990;28;19947;-65
2023/09/22 00:31:38;;;;;;;;;;;13.40;99.90;;;;;;5078303;28;19924;-65
2023/09/22 00:34:04;;;;;;;;;;;13.10;99.90;;;;;;5061509;28;20304;-65
2023/09/22 00:36:29;;;;;;;;;;;13.00;99.90;;;;;;5060888;28;19938;-65
2023/09/22 00:38:55;;;;;;;;;;;13.20;99.90;;;;;;5061241;28;20400;-65
2023/09/22 00:41:20;;;;;;;;;;;13.40;99.90;;;;;;5078874;28;19924;-64
2023/09/22 00:43:46;;;;;;;;;;;13.20;99.90;;;;;;5063025;28;19920;-64
2023/09/22 00:46:12;;;;;;;;;;;13.20;99.90;;;;;;5065589;28;20014;-64
2023/09/22 00:48:39;;;;;;;;;;;13.40;99.90;;;;;;5081558;28;20429;-65
2023/09/22 00:51:05;;;;;;;;;;;13.10;99.90;;;;;;5082328;28;19931;-64
2023/09/22 00:53:32;;;;;;;;;;;13.00;99.90;;;;;;5081617;28;20140;-64
2023/09/22 00:55:58;;;;;;;;;;;13.50;99.90;;;;;;5082264;28;19969;-64
2023/09/22 00:58:24;;;;;;;;;;;13.10;99.90;;;;;;5081644;28;19923;-65
2023/09/22 01:00:49;;;;;;;;;;;13.30;99.90;;;;;;5082391;28;19924;-65
2023/09/22 01:03:16;;;;;;;;;;;13.10;99.90;;;;;;5081961;28;19935;-64
2023/09/22 01:05:42;;;;;;;;;;;13.20;99.90;;;;;;5065153;28;20224;-64
2023/09/22 01:08:08;;;;;;;;;;;13.10;99.90;;;;;;5064963;28;19920;-65
2023/09/22 01:10:37;;;;;;;;;;;13.30;99.90;;;;;;5081548;28;20329;-66
2023/09/22 01:13:04;;;;;;;;;;;13.50;99.90;;;;;;5083188;28;19969;-64
2023/09/22 01:15:30;;;;;;;;;;;13.50;99.90;;;;;;5082857;28;20158;-65
2023/09/22 01:17:56;;;;;;;;;;;13.10;99.90;;;;;;5064366;28;19962;-65
2023/09/22 01:20:22;;;;;;;;;;;13.40;99.90;;;;;;5064407;28;20018;-65
2023/09/22 01:22:48;;;;;;;;;;;13.10;99.90;;;;;;5081094;28;19920;-65
2023/09/22 01:25:14;;;;;;;;;;;13.10;99.90;;;;;;5081198;28;19962;-65
2023/09/22 01:27:39;;;;;;;;;;;13.50;99.90;;;;;;5081326;28;20289;-66
2023/09/22 01:30:05;;;;;;;;;;;13.60;99.90;;;;;;5080818;28;19982;-66
2023/09/22 01:32:31;;;;;;;;;;;13.10;99.90;;;;;;5063738;28;19924;-65
2023/09/22 01:34:58;;;;;;;;;;;13.60;99.90;;;;;;5063830;28;19924;-65
2023/09/22 01:37:28;;;;;;;;;;;13.20;99.90;;;;;;5064346;28;20329;-65
2023/09/22 01:39:57;;;;;;;;;;;13.60;99.90;;;;;;5081237;28;19920;-65
2023/09/22 01:42:23;;;;;;;;;;;13.50;99.90;;;;;;5063628;28;20538;-65
2023/09/22 01:44:49;;;;;;;;;;;13.60;99.90;;;;;;5064094;28;19928;-66
2023/09/22 01:47:14;;;;;;;;;;;13.60;99.90;;;;;;5064035;28;20174;-66
2023/09/22 01:49:40;;;;;;;;;;;13.60;99.90;;;;;;5080627;28;20390;-65
2023/09/22 01:52:05;;;;;;;;;;;13.50;99.90;;;;;;5080897;28;19924;-67
2023/09/22 01:54:31;;;;;;;;;;;13.60;99.90;;;;;;5063659;28;19924;-65
2023/09/22 01:56:56;;;;;;;;;;;13.50;99.90;;;;;;5080991;28;19920;-65
2023/09/22 01:59:22;;;;;;;;;;;13.60;99.90;;;;;;5080510;28;20003;-66
2023/09/22 02:01:48;;;;;;;;;;;13.30;99.90;;;;;;5064113;28;19924;-65
2023/09/22 02:04:13;;;;;;;;;;;13.70;99.90;;;;;;5080498;28;20356;-65
2023/09/22 02:06:39;;;;;;;;;;;13.20;99.90;;;;;;5080601;28;20006;-65
2023/09/22 02:09:05;;;;;;;;;;;13.30;99.90;;;;;;5080828;28;20347;-65
2023/09/22 02:11:31;;;;;;;;;;;13.60;99.90;;;;;;5064044;28;19949;-65
2023/09/22 02:13:57;;;;;;;;;;;13.30;99.90;;;;;;5063478;28;19924;-65
2023/09/22 02:16:22;;;;;;;;;;;13.50;99.90;;;;;;5080198;28;19931;-65
2023/09/22 02:18:48;;;;;;;;;;;13.60;99.90;;;;;;5080157;28;19928;-65
2023/09/22 02:21:16;;;;;;;;;;;13.50;99.90;;;;;;5063259;28;19963;-65
2023/09/22 02:23:41;;;;;;;;;;;13.40;99.90;;;;;;5080961;28;19971;-66
2023/09/22 02:26:07;;;;;;;;;;;13.40;99.90;;;;;;5080251;28;19970;-66
2023/09/22 02:28:33;;;;;;;;;;;13.70;99.90;;;;;;5079467;28;19973;-66
2023/09/22 02:30:59;;;;;;;;;;;14.00;99.90;;;;;;5081458;28;19932;-65
2023/09/22 02:33:25;;;;;;;;;;;13.60;99.90;;;;;;5079737;28;19993;-66
2023/09/22 02:35:51;;;;;;;;;;;13.70;99.90;;;;;;5079667;28;19970;-65
2023/09/22 02:38:16;;;;;;;;;;;13.60;99.90;;;;;;5062942;28;19924;-66
2023/09/22 02:40:44;;;;;;;;;;;13.80;99.90;;;;;;5062917;28;19931;-65
2023/09/22 02:43:09;;;;;;;;;;;13.40;99.90;;;;;;5062477;28;19939;-66
2023/09/22 02:45:38;;;;;;;;;;;13.40;99.90;;;;;;5079403;28;19995;-66
2023/09/22 02:48:05;;;;;;;;;;;13.30;99.90;;;;;;5062641;28;19920;-66
2023/09/22 02:50:30;;;;;;;;;;;13.50;99.90;;;;;;5078919;28;19967;-66
2023/09/22 02:52:56;;;;;;;;;;;13.60;99.90;;;;;;5063337;28;19982;-66
2023/09/22 02:55:21;;;;;;;;;;;13.80;99.90;;;;;;5045981;28;19924;-65
2023/09/22 02:57:47;;;;;;;;;;;13.50;99.90;;;;;;5079370;28;20181;-66
2023/09/22 03:00:20;;;;;;;;;;;14.00;99.90;;;;;;5079255;28;19924;-66
2023/09/22 03:02:46;;;;;;;;;;;13.60;99.90;;;;;;5078889;28;20018;-66
2023/09/22 03:05:15;;;;;;;;;;;14.10;99.90;;;;;;5079095;28;19932;-65
2023/09/22 03:07:41;;;;;;;;;;;14.10;99.90;;;;;;5080313;28;20322;-66
2023/09/22 03:10:07;;;;;;;;;;;14.00;99.90;;;;;;5078924;28;20350;-66
2023/09/22 03:12:33;;;;;;;;;;;14.10;99.90;;;;;;5062048;28;19974;-66
2023/09/22 03:14:59;;;;;;;;;;;14.00;99.90;;;;;;5079906;28;19924;-66
2023/09/22 03:17:24;;;;;;;;;;;13.90;99.90;;;;;;5079084;28;19924;-66
2023/09/22 03:19:50;;;;;;;;;;;13.60;99.90;;;;;;5079346;28;19924;-66
2023/09/22 03:22:16;;;;;;;;;;;13.50;99.90;;;;;;5062765;28;20023;-66
2023/09/22 03:24:41;;;;;;;;;;;14.00;99.90;;;;;;5078480;28;19928;-65
2023/09/22 03:27:07;;;;;;;;;;;14.00;99.90;;;;;;5078833;28;19924;-65
2023/09/22 03:29:33;;;;;;;;;;;13.90;99.90;;;;;;5079044;28;20370;-64
2023/09/22 03:31:58;;;;;;;;;;;14.20;99.90;;;;;;5061883;28;20827;-64
2023/09/22 03:34:24;;;;;;;;;;;14.20;99.90;;;;;;5078426;28;19920;-64
2023/09/22 03:36:49;;;;;;;;;;;14.00;99.90;;;;;;5079189;28;20014;-64
2023/09/22 03:39:16;;;;;;;;;;;13.70;99.90;;;;;;5062552;28;20131;-65
2023/09/22 03:41:42;;;;;;;;;;;13.80;99.90;;;;;;5078669;28;20401;-66
2023/09/22 03:44:08;;;;;;;;;;;14.30;99.90;;;;;;5061625;28;19946;-65
2023/09/22 03:46:33;;;;;;;;;;;14.30;99.90;;;;;;5061624;28;20019;-66
2023/09/22 03:48:59;;;;;;;;;;;13.90;99.90;;;;;;5078502;28;19931;-65
2023/09/22 03:51:25;;;;;;;;;;;13.80;99.90;;;;;;5079333;28;19979;-66
2023/09/22 03:53:52;;;;;;;;;;;14.10;99.90;;;;;;5046143;28;19931;-65
2023/09/22 03:56:17;;;;;;;;;;;14.30;99.90;;;;;;5078716;28;20018;-65
2023/09/22 03:58:43;;;;;;;;;;;14.20;99.90;;;;;;5078859;28;20293;-63
2023/09/22 04:01:09;;;;;;;;;;;13.90;99.90;;;;;;5062019;28;20033;-65
2023/09/22 04:03:34;;;;;;;;;;;14.10;99.90;;;;;;5061841;28;19924;-64
2023/09/22 04:06:04;;;;;;;;;;;13.80;99.90;;;;;;5062135;28;19927;-65
2023/09/22 04:08:30;;;;;;;;;;;14.00;99.90;;;;;;5061639;28;19920;-65
2023/09/22 04:10:56;;;;;;;;;;;14.20;99.90;;;;;;5061302;28;19928;-64
2023/09/22 04:13:24;;;;;;;;;;;14.10;99.90;;;;;;5078725;28;20524;-65
2023/09/22 04:15:59;;;;;;;;;;;13.70;99.90;;;;;;5078568;28;20159;-65
2023/09/22 04:18:29;;;;;;;;;;;14.00;99.90;;;;;;5081044;28;19920;-65
2023/09/22 04:21:01;;;;;;;;;;;13.60;99.90;;;;;;5082792;28;19931;-65
2023/09/22 04:23:27;;;;;;;;;;;13.60;99.90;;;;;;5082276;28;19955;-65
2023/09/22 04:25:56;;;;;;;;;;;14.00;99.90;;;;;;5081933;28;20418;-65
2023/09/22 04:28:24;;;;;;;;;;;13.70;99.90;;;;;;5083604;28;19931;-65
2023/09/22 04:30:50;;;;;;;;;;;13.60;99.90;;;;;;5082666;28;20294;-65
2023/09/22 04:33:15;;;;;;;;;;;13.90;99.90;;;;;;5082842;28;19931;-65
2023/09/22 04:35:41;;;;;;;;;;;13.80;99.90;;;;;;5082474;28;20421;-65
2023/09/22 04:38:08;;;;;;;;;;;13.80;99.90;;;;;;5082385;28;20224;-65
2023/09/22 04:40:38;;;;;;;;;;;14.10;99.90;;;;;;5081495;28;20170;-65
2023/09/22 04:43:07;;;;;;;;;;;13.80;99.90;;;;;;5082497;28;19927;-65
2023/09/22 04:45:37;;;;;;;;;;;13.60;99.90;;;;;;5082482;28;19928;-65
2023/09/22 04:48:04;;;;;;;;;;;13.60;99.90;;;;;;5081948;28;19931;-65
2023/09/22 04:50:31;;;;;;;;;;;13.80;99.90;;;;;;5081660;28;20034;-64
2023/09/22 04:52:57;;;;;;;;;;;14.00;99.90;;;;;;5082149;28;19935;-65
2023/09/22 04:55:22;;;;;;;;;;;14.00;99.90;;;;;;5065102;28;19923;-65
2023/09/22 04:57:48;;;;;;;;;;;13.60;99.90;;;;;;5082316;28;20390;-66
2023/09/22 05:00:16;;;;;;;;;;;13.60;99.90;;;;;;5065733;28;19979;-65
2023/09/22 05:02:43;;;;;;;;;;;13.80;99.90;;;;;;5081802;28;19924;-65
2023/09/22 05:05:09;;;;;;;;;;;13.50;99.90;;;;;;5081817;28;20451;-65
2023/09/22 05:07:35;;;;;;;;;;;13.70;99.90;;;;;;5081805;28;19924;-65
2023/09/22 05:10:07;;;;;;;;;;;13.80;99.90;;;;;;5082031;28;19935;-65
2023/09/22 05:12:34;;;;;;;;;;;13.90;99.90;;;;;;5081727;28;19920;-65
2023/09/22 05:15:00;;;;;;;;;;;13.70;99.90;;;;;;5081851;28;19924;-65
2023/09/22 05:17:27;;;;;;;;;;;13.60;99.90;;;;;;5081737;28;19920;-66
2023/09/22 05:19:53;;;;;;;;;;;13.50;99.90;;;;;;5082721;28;19924;-66
2023/09/22 05:22:20;;;;;;;;;;;13.50;99.90;;;;;;5081493;28;19931;-65
2023/09/22 05:24:46;;;;;;;;;;;14.00;99.90;;;;;;5081642;28;20354;-65
2023/09/22 05:27:12;;;;;;;;;;;13.80;99.90;;;;;;5081911;28;19959;-66
2023/09/22 05:29:37;;;;;;;;;;;13.70;99.90;;;;;;5080649;28;19998;-65
2023/09/22 05:32:03;;;;;;;;;;;13.90;99.90;;;;;;5081629;28;19924;-66
2023/09/22 05:34:29;;;;;;;;;;;13.90;99.90;;;;;;5080929;28;19967;-66
2023/09/22 05:36:54;;;;;;;;;;;13.70;99.90;;;;;;5081418;28;20104;-65
2023/09/22 05:39:20;;;;;;;;;;;13.50;99.90;;;;;;5064896;28;19924;-65
2023/09/22 05:41:47;;;;;;;;;;;13.60;99.90;;;;;;5064937;28;20178;-66
2023/09/22 05:44:13;;;;;;;;;;;13.60;99.90;;;;;;5064444;28;19924;-65
2023/09/22 05:46:38;;;;;;;;;;;13.60;99.90;;;;;;5080652;28;20409;-65
2023/09/22 05:49:05;;;;;;;;;;;14.00;99.90;;;;;;5080819;28;20205;-65
2023/09/22 05:51:32;;;;;;;;;;;14.00;99.90;;;;;;5081068;28;20402;-65
2023/09/22 05:53:57;;;;;;;;;;;13.90;99.90;;;;;;5080825;28;20406;-65
2023/09/22 05:56:23;;;;;;;;;;;14.00;99.90;;;;;;5081471;28;20135;-66
2023/09/22 05:58:48;;;;;;;;;;;13.60;99.90;;;;;;5081229;28;19931;-65
2023/09/22 06:01:14;;;;;;;;;;;13.50;99.90;;;;;;5081205;28;19964;-65
2023/09/22 06:03:40;;;;;;;;;;;13.60;99.90;;;;;;5081137;28;19920;-65
2023/09/22 06:06:10;;;;;;;;;;;13.70;99.90;;;;;;5064776;28;19920;-65
2023/09/22 06:08:36;;;;;;;;;;;13.60;99.90;;;;;;5064202;28;20037;-65
2023/09/22 06:11:03;;;;;;;;;;;13.90;99.90;;;;;;5081139;28;20413;-65
2023/09/22 06:13:29;;;;;;;;;;;13.60;99.90;;;;;;5080978;28;20218;-65
2023/09/22 06:15:55;;;;;;;;;;;13.90;99.90;;;;;;5064472;28;20011;-65
2023/09/22 06:18:20;;;;;;;;;;;13.70;99.90;;;;;;5082121;28;20007;-65
2023/09/22 06:20:46;;;;;;;;;;;13.80;99.90;;;;;;5063713;28;20006;-64
2023/09/22 06:23:12;;;;;;;;;;;13.60;99.90;;;;;;5080684;28;20192;-65
2023/09/22 06:25:37;;;;;;;;;;;13.70;99.90;;;;;;5080699;28;20247;-65
2023/09/22 06:28:05;;;;;;;;;;;14.00;99.90;;;;;;5064096;28;19924;-65
2023/09/22 06:30:34;;;;;;;;;;;13.70;99.90;;;;;;5063538;28;19924;-65
2023/09/22 06:33:00;;;;;;;;;;;13.90;99.90;;;;;;5064131;28;20243;-64
2023/09/22 06:35:26;;;;;;;;;;;14.00;99.90;;;;;;5080351;28;20429;-65
2023/09/22 06:37:51;;;;;;;;;;;14.00;99.90;;;;;;5080478;28;20127;-65
2023/09/22 06:40:17;;;;;;;;;;;14.00;99.90;;;;;;5080478;28;20131;-65
2023/09/22 06:42:45;;;;;;;;;;;13.90;99.90;;;;;;5079119;28;19924;-65
2023/09/22 06:45:11;;;;;;;;;;;14.10;99.90;;;;;;5063234;28;20294;-65
2023/09/22 06:47:43;;;;;;;;;;;14.00;99.90;;;;;;5079910;28;20014;-65
2023/09/22 06:50:09;;;;;;;;;;;14.00;99.90;;;;;;5080035;28;20488;-65
2023/09/22 06:52:36;;;;;;;;;;;14.20;99.90;;;;;;5063383;28;19924;-65
2023/09/22 06:55:01;;;;;;;;;;;14.00;99.90;;;;;;5080287;28;20354;-64
2023/09/22 06:57:27;;;;;;;;;;;13.90;99.90;;;;;;5079636;28;20447;-64
2023/09/22 06:59:53;;;;;;;;;;;13.90;99.90;;;;;;5079539;28;20006;-65
2023/09/22 07:02:19;;;;;;;;;;;14.00;99.90;;;;;;5081083;28;20179;-65
2023/09/22 07:04:44;;;;;;;;;;;13.90;99.90;;;;;;5080692;28;19935;-65
2023/09/22 07:07:11;;;;;;;;;;;13.80;99.90;;;;;;5079633;28;19924;-65
2023/09/22 07:09:37;;;;;;;;;;;14.00;99.90;;;;;;5079571;28;19968;-65
2023/09/22 07:12:03;;;;;;;;;;;14.00;99.90;;;;;;5079474;28;19982;-65
2023/09/22 07:14:29;;;;;;;;;;;14.20;99.90;;;;;;5080320;28;19928;-65
2023/09/22 07:16:54;;;;;;;;;;;14.10;99.90;;;;;;5079649;28;19927;-65
2023/09/22 07:19:21;;;;;;;;;;;14.10;99.90;;;;;;5062556;28;19920;-65
2023/09/22 07:21:48;;;;;;;;;;;14.50;99.90;;;;;;5063191;28;20410;-65
2023/09/22 07:24:15;;;;;;;;;;;14.40;99.90;;;;;;5081284;28;20217;-65
2023/09/22 07:26:40;;;;;;;;;;;14.40;99.90;;;;;;5080098;28;19960;-64
2023/09/22 07:29:06;;;;;;;;;;;14.30;99.90;;;;;;5080366;28;20777;-64
2023/09/22 07:31:32;;;;;;;;;;;14.60;99.90;;;;;;5078945;28;19935;-64
2023/09/22 07:33:58;;;;;;;;;;;14.40;99.90;;;;;;5079161;28;19931;-65
2023/09/22 07:36:26;;;;;;;;;;;14.50;99.90;;;;;;5062883;28;20432;-64
2023/09/22 07:38:52;;;;;;;;;;;14.60;99.90;;;;;;5079345;28;19963;-65
2023/09/22 07:41:18;;;;;;;;;;;14.50;99.90;;;;;;5078798;28;19969;-65
2023/09/22 07:43:44;;;;;;;;;;;14.70;99.90;;;;;;5079163;28;19932;-65
2023/09/22 07:46:09;;;;;;;;;;;14.50;99.90;;;;;;5062035;28;20364;-65
2023/09/22 07:48:35;;;;;;;;;;;14.70;99.90;;;;;;5061762;28;19924;-64
2023/09/22 07:51:01;;;;;;;;;;;14.80;99.90;;;;;;5079140;28;19930;-65
2023/09/22 07:53:27;;;;;;;;;;;14.80;99.90;;;;;;5084595;28;20007;-64
2023/09/22 07:55:55;;;;;;;;;;;14.80;99.90;;;;;;5085637;28;19923;-64
2023/09/22 07:58:23;;;;;;;;;;;14.60;99.90;;;;;;5086933;28;20321;-64
2023/09/22 08:00:49;;;;;;;;;;;14.50;99.90;;;;;;5085473;28;19932;-64
2023/09/22 08:03:18;;;;;;;;;;;14.50;99.90;;;;;;5085355;28;19924;-66
2023/09/22 08:05:44;;;;;;;;;;;14.50;99.90;;;;;;5085863;28;19920;-65
2023/09/22 08:08:10;;;;;;;;;;;14.40;99.90;;;;;;5086184;28;19999;-65
2023/09/22 08:10:38;;;;;;;;;;;14.30;99.90;;;;;;5085137;28;19970;-64
2023/09/22 08:13:07;;;;;;;;;;;14.20;99.90;;;;;;5086135;28;19973;-64
2023/09/22 08:15:34;;;;;;;;;;;14.20;99.90;;;;;;5086151;28;20195;-64
2023/09/22 08:17:59;;;;;;;;;;;14.30;99.90;;;;;;5085990;28;20262;-64
2023/09/22 08:20:25;;;;;;;;;;;14.10;99.90;;;;;;5069237;28;20162;-66
2023/09/22 08:22:51;;;;;;;;;;;14.30;99.90;;;;;;5085648;28;20016;-65
2023/09/22 08:25:16;;;;;;;;;;;14.40;99.90;;;;;;5085558;28;19932;-65
2023/09/22 08:27:44;;;;;;;;;;;14.20;99.90;;;;;;5068991;28;19935;-65
2023/09/22 08:30:11;;;;;;;;;;;14.10;99.90;;;;;;5085832;28;19924;-65
2023/09/22 08:32:40;;;;;;;;;;;14.00;99.90;;;;;;5068776;28;20007;-65
2023/09/22 08:35:10;;;;;;;;;;;14.20;99.90;;;;;;5085946;28;19972;-65
2023/09/22 08:37:41;;;;;;;;;;;14.20;99.90;;;;;;5068636;28;19924;-64
2023/09/22 08:40:11;;;;;;;;;;;14.00;99.90;;;;;;5087005;28;19920;-64
2023/09/22 08:42:37;;;;;;;;;;;14.10;99.90;;;;;;5068342;28;20317;-65
2023/09/22 08:45:06;;;;;;;;;;;14.20;99.90;;;;;;5086060;28;20417;-65
2023/09/22 08:47:39;;;;;;;;;;;14.20;99.90;;;;;;5087274;28;19920;-65
2023/09/22 08:50:11;;;;;;;;;;;14.00;99.90;;;;;;5085022;28;19924;-65
2023/09/22 08:52:41;;;;;;;;;;;14.10;99.90;;;;;;5086695;28;20170;-64
2023/09/22 08:55:08;;;;;;;;;;;14.10;99.90;;;;;;5085331;28;19924;-65
2023/09/22 08:57:34;;;;;;;;;;;14.10;99.90;;;;;;5085818;28;19924;-65
2023/09/22 08:59:59;;;;;;;;;;;14.10;99.90;;;;;;5086548;28;20469;-65
2023/09/22 09:02:25;;;;;;;;;;;14.10;99.90;;;;;;5085323;28;20023;-65
2023/09/22 09:04:51;;;;;;;;;;;14.20;99.90;;;;;;5082137;28;19919;-65
2023/09/22 09:07:17;;;;;;;;;;;14.20;99.90;;;;;;5081943;28;19924;-65
2023/09/22 09:09:43;;;;;;;;;;;14.30;99.90;;;;;;5081810;28;19935;-65
2023/09/22 09:12:10;;;;;;;;;;;14.30;99.90;;;;;;5083968;28;19924;-65
2023/09/22 09:14:39;;;;;;;;;;;14.50;99.90;;;;;;5081760;28;19924;-65
2023/09/22 09:17:16;;;;;;;;;;;14.60;99.90;;;;;;5064998;28;20441;-65
2023/09/22 09:19:42;;;;;;;;;;;14.50;99.90;;;;;;5081879;28;20417;-64
2023/09/22 09:22:12;;;;;;;;;;;14.60;99.90;;;;;;5065002;28;19963;-63
2023/09/22 09:24:38;;;;;;;;;;;14.70;99.90;;;;;;5081765;28;20011;-64
2023/09/22 09:27:17;;;;;;;;;;;14.70;99.90;;;;;;5081438;28;20019;-64
2023/09/22 09:29:46;;;;;;;;;;;14.50;99.90;;;;;;5064511;28;19924;-63
2023/09/22 09:32:25;;;;;;;;;;;14.60;1.00;;;;;;5082282;28;20010;-64
2023/09/22 09:34:51;;;;;;;;;;;14.60;49.30;;;;;;5081539;28;20147;-64
2023/09/22 09:37:17;;;;;;;;;;;14.60;85.10;;;;;;5081741;28;19926;-63
2023/09/22 09:39:43;;;;;;;;;;;14.60;99.90;;;;;;5081953;28;20212;-63
2023/09/22 09:42:10;;;;;;;;;;;14.70;1.00;;;;;;5081408;28;19967;-64
2023/09/22 09:44:37;;;;;;;;;;;14.90;99.90;;;;;;5081596;28;20413;-63
2023/09/22 09:47:03;;;;;;;;;;;15.10;12.80;;;;;;5082433;28;20076;-64
2023/09/22 09:49:30;;;;;;;;;;;15.60;91.30;;;;;;5081672;28;19924;-63
2023/09/22 09:51:55;;;;;;;;;;;16.20;1.00;;;;;;5082930;28;20148;-63
2023/09/22 09:54:21;;;;;;;;;;;16.70;17.20;;;;;;5081558;28;20366;-64
2023/09/22 09:56:48;;;;;;;;;;;16.80;99.90;;;;;;5081593;28;20010;-62
2023/09/22 09:59:14;;;;;;;;;;;17.10;99.90;;;;;;5064631;28;20165;-62
2023/09/22 10:01:41;;;;;;;;;;;17.50;1.00;;;;;;5064878;28;19959;-63
2023/09/22 10:04:07;;;;;;;;;;;18.30;99.90;;;;;;5081247;28;20409;-63
2023/09/22 10:06:33;;;;;;;;;;;18.80;18.00;;;;;;5082279;28;20034;-63
2023/09/22 10:08:59;;;;;;;;;;;19.20;99.90;;;;;;5064452;28;19951;-62
2023/09/22 10:11:25;;;;;;;;;;;19.40;99.90;;;;;;5081826;28;19928;-63
2023/09/22 10:13:50;;;;;;;;;;;19.60;99.90;;;;;;5081400;28;19924;-63
2023/09/22 10:16:27;;;;;;;;;;;19.70;99.90;;;;;;5081426;28;20340;-63
2023/09/22 10:18:59;;;;;;;;;;;19.20;1.00;;;;;;5081203;28;20231;-63
2023/09/22 10:21:27;;;;;;;;;;;18.70;99.90;;;;;;5080914;28;19920;-63
2023/09/22 10:24:12;;;;;;;;;;;18.80;99.90;;;;;;5080754;28;20393;-63
2023/09/22 10:27:03;;;;;;;;;;;19.50;99.90;;;;;;5079970;28;20070;-63
2023/09/22 10:29:37;;;;;;;;;;;20.00;99.90;;;;;;5081552;28;20420;-63
2023/09/22 10:32:15;;;;;;;;;;;20.10;99.90;;;;;;5080886;28;19919;-63
2023/09/22 10:34:57;;;;;;;;;;;20.30;99.90;;;;;;5080221;28;19954;-64
2023/09/22 10:37:31;;;;;;;;;;;21.00;99.90;;;;;;5063132;28;20014;-65
2023/09/22 10:39:56;;;;;;;;;;;20.60;99.90;;;;;;5080636;28;19928;-64
2023/09/22 10:42:22;;;;;;;;;;;20.20;99.90;;;;;;5079574;28;19927;-64
2023/09/22 10:44:54;;;;;;;;;;;19.60;99.90;;;;;;5079964;28;19930;-64
2023/09/22 10:47:20;;;;;;;;;;;19.30;98.20;;;;;;5079969;28;20325;-65
2023/09/22 10:49:45;;;;;;;;;;;18.80;99.90;;;;;;5079627;28;20103;-64
2023/09/22 10:52:18;;;;;;;;;;;18.00;1.00;;;;;;5081707;28;20583;-65
2023/09/22 10:54:46;;;;;;;;;;;17.50;1.00;;;;;;5063233;28;19962;-64
2023/09/22 10:57:22;;;;;;;;;;;17.50;22.40;;;;;;5079125;28;20019;-64
2023/09/22 10:59:48;;;;;;;;;;;17.50;99.90;;;;;;5079488;28;20010;-64
2023/09/22 11:02:24;;;;;;;;;;;17.20;91.70;;;;;;5079734;28;20378;-64
2023/09/22 11:04:50;;;;;;;;;;;16.90;99.90;;;;;;5079743;28;20356;-64
2023/09/22 11:07:29;;;;;;;;;;;16.90;99.90;;;;;;5062590;28;20152;-64
2023/09/22 11:09:54;;;;;;;;;;;17.10;99.90;;;;;;5080802;28;20027;-64
2023/09/22 11:12:20;;;;;;;;;;;17.60;99.90;;;;;;5080353;28;20447;-64
2023/09/22 11:14:46;;;;;;;;;;;17.90;99.90;;;;;;5079473;28;19990;-64
2023/09/22 11:17:12;;;;;;;;;;;18.20;99.90;;;;;;5079152;28;19950;-64
2023/09/22 11:19:49;;;;;;;;;;;18.80;93.00;;;;;;5079598;28;20479;-64
2023/09/22 11:22:14;;;;;;;;;;;19.50;1.00;;;;;;5079321;28;19930;-64
2023/09/22 11:24:40;;;;;;;;;;;20.10;1.00;;;;;;5081158;28;19924;-65
2023/09/22 11:27:06;;;;;;;;;;;20.90;1.00;;;;;;5079441;28;19968;-63
2023/09/22 11:29:33;;;;;;;;;;;21.50;99.90;;;;;;5062753;28;19924;-63
2023/09/22 11:32:00;;;;;;;;;;;21.30;99.90;;;;;;5079637;28;19992;-64
2023/09/22 11:34:32;;;;;;;;;;;21.40;99.90;;;;;;5079445;28;19931;-64
2023/09/22 11:36:57;;;;;;;;;;;21.10;54.40;;;;;;5079264;28;19920;-64
2023/09/22 11:39:27;;;;;;;;;;;20.70;99.90;;;;;;5062897;28;19950;-64
2023/09/22 11:41:53;;;;;;;;;;;20.70;99.90;;;;;;5079892;28;19928;-64
2023/09/22 11:44:19;;;;;;;;;;;20.70;99.90;;;;;;5079431;28;19928;-64
2023/09/22 11:46:45;;;;;;;;;;;20.30;99.90;;;;;;5079427;28;20398;-64
2023/09/22 11:49:12;;;;;;;;;;;20.20;99.90;;;;;;5062551;28;19994;-64
2023/09/22 11:51:58;;;;;;;;;;;20.00;99.90;;;;;;5079047;28;19935;-64
2023/09/22 11:54:24;;;;;;;;;;;19.60;99.90;;;;;;5080286;28;20243;-64
2023/09/22 11:56:51;;;;;;;;;;;18.90;99.90;;;;;;5080757;28;19924;-65
2023/09/22 11:59:17;;;;;;;;;;;18.50;99.90;;;;;;5078872;28;19924;-64
2023/09/22 12:01:44;;;;;;;;;;;18.20;99.90;;;;;;5080346;28;20170;-64
2023/09/22 12:04:10;;;;;;;;;;;18.00;99.90;;;;;;5079355;28;20181;-64
2023/09/22 12:06:40;;;;;;;;;;;17.70;99.90;;;;;;5079251;28;19993;-64
2023/09/22 12:09:15;;;;;;;;;;;17.60;1.00;;;;;;5078764;28;20404;-64
2023/09/22 12:11:41;;;;;;;;;;;17.60;99.90;;;;;;5078528;28;19929;-64
2023/09/22 12:14:07;;;;;;;;;;;17.60;1.00;;;;;;5078888;28;19981;-64
2023/09/22 12:16:33;;;;;;;;;;;17.80;99.90;;;;;;5079691;28;19975;-64
2023/09/22 12:18:58;;;;;;;;;;;17.90;99.90;;;;;;5079874;28;20167;-64
2023/09/22 12:21:28;;;;;;;;;;;18.10;1.00;;;;;;5079061;28;19927;-63
2023/09/22 12:23:53;;;;;;;;;;;18.10;99.90;;;;;;5079045;28;20120;-63
2023/09/22 12:26:20;;;;;;;;;;;18.20;99.90;;;;;;5079302;28;19932;-63
2023/09/22 12:28:46;;;;;;;;;;;18.00;99.90;;;;;;5079210;28;20015;-64
2023/09/22 12:31:12;;;;;;;;;;;18.00;99.90;;;;;;5063290;28;20084;-63
2023/09/22 12:33:37;;;;;;;;;;;17.90;99.90;;;;;;5079187;28;20356;-63
2023/09/22 12:36:03;;;;;;;;;;;17.80;99.90;;;;;;5062650;28;19955;-63
2023/09/22 12:38:29;;;;;;;;;;;17.70;99.90;;;;;;5079145;28;19951;-63
2023/09/22 12:40:56;;;;;;;;;;;17.60;1.00;;;;;;5082570;28;19965;-64
2023/09/22 12:43:23;;;;;;;;;;;17.30;99.90;;;;;;5066319;28;19953;-64
2023/09/22 12:45:48;;;;;;;;;;;17.10;1.00;;;;;;5083192;28;19977;-63
2023/09/22 12:48:14;;;;;;;;;;;16.90;99.90;;;;;;5083205;28;19924;-63
2023/09/22 12:50:40;;;;;;;;;;;16.90;1.00;;;;;;5065756;28;19971;-64
2023/09/22 12:53:08;;;;;;;;;;;16.90;26.70;;;;;;5084197;28;20117;-63
2023/09/22 12:55:36;;;;;;;;;;;16.90;99.90;;;;;;5084241;28;20447;-63
2023/09/22 12:58:02;;;;;;;;;;;16.90;99.90;;;;;;5082680;28;19924;-63
2023/09/22 13:00:28;;;;;;;;;;;16.80;99.90;;;;;;5082769;28;19931;-63
2023/09/22 13:02:53;;;;;;;;;;;16.80;69.20;;;;;;5083759;28;19920;-63
2023/09/22 13:05:19;;;;;;;;;;;16.90;23.00;;;;;;5082467;28;19967;-65
2023/09/22 13:07:44;;;;;;;;;;;16.90;99.90;;;;;;5082466;28;19947;-64
2023/09/22 13:10:11;;;;;;;;;;;16.90;99.90;;;;;;5081950;28;20182;-65
2023/09/22 13:12:38;;;;;;;;;;;16.90;6.80;;;;;;5081473;28;20485;-64
2023/09/22 13:15:05;;;;;;;;;;;16.90;99.90;;;;;;5081968;28;19973;-63
2023/09/22 13:17:30;;;;;;;;;;;16.80;99.90;;;;;;5081645;28;19931;-63
2023/09/22 13:19:56;;;;;;;;;;;16.80;99.90;;;;;;5080962;28;19920;-64
2023/09/22 13:22:21;;;;;;;;;;;16.90;99.90;;;;;;5081115;28;19954;-64
2023/09/22 13:24:48;;;;;;;;;;;16.90;99.90;;;;;;5082751;28;20232;-65
2023/09/22 13:27:13;;;;;;;;;;;16.90;99.90;;;;;;5064642;28;20476;-64
2023/09/22 13:29:39;;;;;;;;;;;16.80;99.90;;;;;;5064777;28;20129;-64
2023/09/22 13:32:06;;;;;;;;;;;16.80;99.90;;;;;;5065020;28;19923;-64
2023/09/22 13:34:33;;;;;;;;;;;16.70;99.90;;;;;;5082624;28;19920;-64
2023/09/22 13:36:59;;;;;;;;;;;16.70;99.90;;;;;;5081421;28;20629;-64
2023/09/22 13:39:25;;;;;;;;;;;16.70;99.90;;;;;;5064408;28;20015;-64
2023/09/22 13:41:51;;;;;;;;;;;16.70;99.90;;;;;;5080989;28;20325;-64
2023/09/22 13:44:16;;;;;;;;;;;16.60;99.90;;;;;;5082999;28;20150;-64
2023/09/22 13:46:44;;;;;;;;;;;16.60;99.90;;;;;;5081871;28;19924;-64
2023/09/22 13:49:10;;;;;;;;;;;16.50;99.90;;;;;;5082544;28;19933;-63
2023/09/22 13:51:36;;;;;;;;;;;16.40;99.90;;;;;;5080098;28;20362;-63
2023/09/22 13:54:02;;;;;;;;;;;16.40;99.90;;;;;;5080808;28;19927;-64
2023/09/22 13:56:28;;;;;;;;;;;16.40;99.90;;;;;;5080322;28;20274;-64
2023/09/22 13:58:54;;;;;;;;;;;16.30;99.90;;;;;;5082354;28;20019;-64
2023/09/22 14:01:22;;;;;;;;;;;16.30;99.90;;;;;;5064110;28;19923;-63
2023/09/22 14:03:48;;;;;;;;;;;16.30;99.90;;;;;;5082248;28;20003;-64
2023/09/22 14:06:18;;;;;;;;;;;16.30;99.90;;;;;;5064063;28;20018;-63
2023/09/22 14:08:47;;;;;;;;;;;16.30;99.90;;;;;;5080994;28;19927;-63
2023/09/22 14:11:13;;;;;;;;;;;16.30;99.90;;;;;;5081263;28;20271;-63
2023/09/22 14:13:39;;;;;;;;;;;16.40;1.00;;;;;;5064789;28;19931;-65
2023/09/22 14:16:05;;;;;;;;;;;16.40;1.00;;;;;;5081101;28;20274;-64
2023/09/22 14:18:31;;;;;;;;;;;16.40;99.90;;;;;;5080595;28;20351;-63